createdAt,value
2023-03-22T00:02:12.476Z,3.80
2023-03-22T00:04:43.518Z,3.97
2023-03-22T00:07:13.346Z,3.33
2023-03-22T00:09:43.007Z,4.00
2023-03-22T00:12:14.716Z,4.30
2023-03-22T00:14:44.257Z,3.50
2023-03-22T00:17:14.805Z,3.53
2023-03-22T00:19:45.694Z,4.37
2023-03-22T00:22:16.823Z,4.13
2023-03-22T00:24:46.354Z,3.10
2023-03-22T00:27:16.770Z,3.90
2023-03-22T00:29:47.406Z,4.13
2023-03-22T00:32:17.298Z,3.90
2023-03-22T00:34:48.165Z,3.23
2023-03-22T00:37:22.032Z,3.53
2023-03-22T00:39:53.516Z,2.93
2023-03-22T00:42:25.359Z,3.47
2023-03-22T00:44:56.026Z,3.87
2023-03-22T00:47:25.863Z,3.63
2023-03-22T00:49:56.427Z,4.20
2023-03-22T00:52:26.953Z,3.70
2023-03-22T00:54:57.034Z,3.90
2023-03-22T00:57:28.903Z,4.50
2023-03-22T00:59:59.026Z,3.50
2023-03-22T01:02:30.403Z,3.43
2023-03-22T01:05:00.955Z,3.63
2023-03-22T01:07:31.241Z,2.90
2023-03-22T01:10:00.987Z,4.03
2023-03-22T01:12:32.021Z,3.60
2023-03-22T01:15:03.151Z,3.20
2023-03-22T01:17:33.241Z,3.17
2023-03-22T01:20:07.056Z,3.57
2023-03-22T01:22:37.130Z,3.13
2023-03-22T01:25:10.433Z,4.27
2023-03-22T01:27:42.238Z,3.17
2023-03-22T01:30:14.717Z,3.90
2023-03-22T01:32:44.889Z,3.20
2023-03-22T01:35:14.902Z,4.00
2023-03-22T01:37:43.778Z,3.90
2023-03-22T01:40:16.238Z,3.67
2023-03-22T01:42:47.310Z,3.80
2023-03-22T01:45:43.860Z,4.03
2023-03-22T01:48:28.055Z,3.57
2023-03-22T01:51:09.332Z,3.70
2023-03-22T01:53:44.755Z,3.73
2023-03-22T01:56:15.654Z,3.40
2023-03-22T01:58:46.459Z,3.47
2023-03-22T02:01:16.772Z,3.60
2023-03-22T02:03:52.036Z,3.80
2023-03-22T02:06:23.894Z,3.40
2023-03-22T02:08:58.023Z,3.40
2023-03-22T02:11:33.701Z,3.50
2023-03-22T02:14:29.910Z,3.20
2023-03-22T02:17:18.016Z,4.00
2023-03-22T02:21:05.017Z,3.80
2023-03-22T02:24:15.548Z,3.90
2023-03-22T02:27:20.126Z,3.40
2023-03-22T02:30:09.776Z,3.27
2023-03-22T02:33:18.845Z,3.80
2023-03-22T02:36:07.250Z,3.70
2023-03-22T02:39:12.533Z,3.67
2023-03-22T02:42:00.061Z,3.53
2023-03-22T02:44:42.135Z,4.13
2023-03-22T02:47:25.018Z,3.90
2023-03-22T02:50:04.289Z,4.00
2023-03-22T02:52:41.940Z,3.70
2023-03-22T02:55:26.772Z,3.80
2023-03-22T02:58:02.265Z,3.60
2023-03-22T03:00:35.442Z,5.70
2023-03-22T03:03:12.972Z,4.40
2023-03-22T03:05:48.471Z,4.20
2023-03-22T03:08:21.588Z,4.50
2023-03-22T03:10:54.335Z,4.70
2023-03-22T03:13:24.855Z,4.03
2023-03-22T03:16:00.312Z,3.80
2023-03-22T03:18:48.951Z,4.53
2023-03-22T03:21:33.888Z,4.23
2023-03-22T03:24:21.344Z,4.13
2023-03-22T03:27:04.208Z,3.33
2023-03-22T03:29:43.815Z,3.47
2023-03-22T03:32:26.350Z,3.50
2023-03-22T03:35:05.994Z,4.07
2023-03-22T03:37:41.707Z,3.37
2023-03-22T03:40:18.990Z,4.40
2023-03-22T03:42:54.870Z,4.40
2023-03-22T03:45:25.580Z,4.40
2023-03-22T03:48:00.730Z,3.93
2023-03-22T03:50:30.743Z,4.00
2023-03-22T03:53:00.523Z,5.37
2023-03-22T03:55:32.402Z,5.80
2023-03-22T03:58:04.406Z,5.43
2023-03-22T04:00:34.858Z,6.47
2023-03-22T04:03:05.876Z,5.20
2023-03-22T04:05:35.256Z,5.90
2023-03-22T04:08:06.378Z,4.90
2023-03-22T04:10:35.994Z,6.03
2023-03-22T04:13:06.978Z,5.20
2023-03-22T04:15:37.510Z,4.13
2023-03-22T04:18:09.786Z,5.10
2023-03-22T04:20:42.278Z,5.60
2023-03-22T04:23:12.316Z,5.93
2023-03-22T04:25:41.927Z,5.63
2023-03-22T04:28:14.317Z,6.40
2023-03-22T04:30:46.435Z,6.07
2023-03-22T04:33:15.962Z,6.23
2023-03-22T04:35:47.334Z,5.80
2023-03-22T04:38:18.586Z,5.40
2023-03-22T04:40:49.030Z,6.53
2023-03-22T04:43:20.954Z,6.00
2023-03-22T04:45:51.036Z,5.63
2023-03-22T04:48:22.307Z,5.97
2023-03-22T04:50:53.872Z,5.57
2023-03-22T04:53:28.032Z,4.00
2023-03-22T04:55:58.484Z,5.10
2023-03-22T04:58:30.503Z,5.80
2023-03-22T05:01:01.059Z,4.10
2023-03-22T05:03:30.082Z,5.30
2023-03-22T05:06:02.271Z,4.83
2023-03-22T05:08:33.016Z,5.43
2023-03-22T05:11:09.939Z,5.07
2023-03-22T05:13:42.459Z,4.87
2023-03-22T05:16:13.976Z,5.40
2023-03-22T05:18:45.823Z,4.97
2023-03-22T05:21:17.263Z,4.90
2023-03-22T05:23:49.743Z,5.00
2023-03-22T05:26:24.361Z,6.17
2023-03-22T05:28:56.517Z,8.47
2023-03-22T05:31:25.281Z,4.67
2023-03-22T05:33:55.248Z,5.60
2023-03-22T05:36:25.671Z,5.00
2023-03-22T05:38:55.785Z,6.07
2023-03-22T05:41:25.430Z,6.00
2023-03-22T05:43:57.906Z,5.20
2023-03-22T05:46:27.766Z,5.37
2023-03-22T05:48:58.317Z,5.53
2023-03-22T05:51:27.794Z,6.10
2023-03-22T05:53:58.320Z,5.70
2023-03-22T05:56:29.145Z,5.23
2023-03-22T05:59:00.029Z,6.43
2023-03-22T06:01:29.850Z,5.23
2023-03-22T06:03:59.924Z,5.47
2023-03-22T06:06:30.010Z,4.50
2023-03-22T06:09:15.900Z,5.13
2023-03-22T06:11:47.673Z,6.00
2023-03-22T06:14:19.464Z,6.10
2023-03-22T06:16:50.175Z,4.80
2023-03-22T06:19:22.193Z,6.00
2023-03-22T06:21:53.436Z,5.20
2023-03-22T06:24:23.527Z,5.37
2023-03-22T06:26:54.259Z,6.17
2023-03-22T06:29:26.204Z,6.57
2023-03-22T06:31:55.750Z,5.27
2023-03-22T06:34:26.490Z,5.37
2023-03-22T06:36:57.202Z,6.43
2023-03-22T06:39:27.468Z,6.20
2023-03-22T06:41:57.777Z,8.70
2023-03-22T06:44:29.192Z,8.13
2023-03-22T06:46:58.970Z,8.47
2023-03-22T06:49:28.609Z,8.67
2023-03-22T06:51:59.025Z,7.63
2023-03-22T06:54:29.203Z,8.83
2023-03-22T06:56:58.670Z,8.93
2023-03-22T06:59:31.172Z,8.17
2023-03-22T07:02:01.782Z,7.83
2023-03-22T07:04:31.429Z,8.10
2023-03-22T07:07:00.874Z,7.50
2023-03-22T07:09:30.700Z,8.00
2023-03-22T07:12:01.160Z,7.10
2023-03-22T07:14:32.682Z,6.83
2023-03-22T07:17:02.423Z,6.90
2023-03-22T07:19:31.944Z,6.20
2023-03-22T07:22:02.113Z,5.50
2023-03-22T07:24:32.660Z,5.27
2023-03-22T07:27:02.148Z,4.83
2023-03-22T07:29:32.712Z,5.40
2023-03-22T07:32:02.140Z,4.57
2023-03-22T07:34:31.591Z,4.47
2023-03-22T07:37:03.527Z,3.87
2023-03-22T07:39:33.177Z,3.60
2023-03-22T07:42:03.275Z,3.20
2023-03-22T07:44:35.006Z,2.90
2023-03-22T07:47:04.579Z,2.20
2023-03-22T07:49:35.418Z,2.67
2023-03-22T07:52:05.404Z,2.23
2023-03-22T07:54:35.140Z,1.97
2023-03-22T07:57:05.991Z,2.00
2023-03-22T07:59:39.999Z,2.07
2023-03-22T08:02:11.638Z,1.47
2023-03-22T08:04:41.501Z,1.60
2023-03-22T08:07:12.197Z,2.27
2023-03-22T08:09:41.646Z,1.67
2023-03-22T08:12:11.040Z,1.80
2023-03-22T08:14:42.043Z,1.73
2023-03-22T08:17:11.362Z,1.80
2023-03-22T08:19:42.375Z,1.70
2023-03-22T08:22:12.879Z,2.10
2023-03-22T08:24:42.619Z,1.53
2023-03-22T08:27:12.903Z,1.97
2023-03-22T08:29:44.534Z,1.53
2023-03-22T08:32:13.601Z,1.53
2023-03-22T08:34:44.901Z,1.60
2023-03-22T08:37:15.214Z,1.40
2023-03-22T08:39:46.475Z,1.50
2023-03-22T08:42:16.463Z,1.43
2023-03-22T08:44:48.122Z,1.33
2023-03-22T08:47:16.946Z,1.57
2023-03-22T08:49:45.989Z,1.53
2023-03-22T08:52:16.527Z,1.90
2023-03-22T08:54:45.491Z,1.80
2023-03-22T08:57:16.564Z,1.47
2023-03-22T08:59:48.509Z,1.27
2023-03-22T09:02:18.428Z,1.93
2023-03-22T09:04:49.267Z,1.67
2023-03-22T09:07:19.488Z,1.80
2023-03-22T09:09:48.537Z,1.30
2023-03-22T09:12:18.512Z,2.73
2023-03-22T09:14:50.583Z,1.57
2023-03-22T09:17:22.454Z,1.50
2023-03-22T09:20:02.659Z,1.50
2023-03-22T09:22:40.136Z,1.50
2023-03-22T09:25:13.042Z,1.57
2023-03-22T09:27:43.379Z,1.30
2023-03-22T09:30:15.247Z,1.50
2023-03-22T09:32:44.749Z,1.97
2023-03-22T09:35:14.675Z,1.50
2023-03-22T09:37:43.167Z,1.30
2023-03-22T09:40:15.693Z,1.60
2023-03-22T09:42:50.129Z,1.27
2023-03-22T09:45:30.548Z,1.90
2023-03-22T09:48:01.741Z,1.10
2023-03-22T09:50:34.357Z,1.90
2023-03-22T09:53:04.566Z,1.80
2023-03-22T09:55:43.423Z,1.57
2023-03-22T09:58:26.693Z,1.50
2023-03-22T10:01:04.203Z,1.53
2023-03-22T10:04:13.124Z,1.03
2023-03-22T10:06:51.966Z,1.47
2023-03-22T10:09:35.247Z,1.60
2023-03-22T10:12:16.987Z,1.37
2023-03-22T10:14:52.728Z,1.20
2023-03-22T10:17:31.449Z,1.30
2023-03-22T10:20:08.513Z,1.50
2023-03-22T10:22:45.812Z,1.40
2023-03-22T10:25:25.764Z,1.50
2023-03-22T10:27:57.858Z,1.13
2023-03-22T10:30:30.229Z,1.50
2023-03-22T10:33:04.357Z,1.20
2023-03-22T10:35:34.747Z,1.23
2023-03-22T10:38:11.814Z,1.57
2023-03-22T10:40:42.808Z,1.60
2023-03-22T10:43:25.761Z,1.50
2023-03-22T10:45:59.046Z,1.63
2023-03-22T10:48:35.143Z,1.20
2023-03-22T10:51:07.382Z,1.10
2023-03-22T10:53:40.964Z,1.27
2023-03-22T10:56:16.261Z,1.63
2023-03-22T10:58:46.541Z,1.53
2023-03-22T11:01:27.213Z,1.57
2023-03-22T11:04:02.223Z,1.27
2023-03-22T11:06:35.405Z,1.50
2023-03-22T11:09:15.439Z,1.30
2023-03-22T11:11:53.826Z,1.30
2023-03-22T11:14:37.312Z,1.00
2023-03-22T11:17:14.194Z,1.23
2023-03-22T11:19:56.330Z,1.20
2023-03-22T11:22:34.116Z,1.67
2023-03-22T11:25:05.236Z,1.20
2023-03-22T11:27:37.761Z,1.20
2023-03-22T11:30:23.399Z,1.10
2023-03-22T11:33:04.495Z,1.00
2023-03-22T11:35:38.767Z,1.00
2023-03-22T11:38:08.348Z,1.40
2023-03-22T11:40:42.363Z,1.30
2023-03-22T11:43:20.859Z,1.30
2023-03-22T11:45:56.319Z,1.30
2023-03-22T11:48:30.506Z,1.50
2023-03-22T11:51:11.330Z,1.40
2023-03-22T11:53:45.456Z,1.90
2023-03-22T11:56:20.999Z,1.20
2023-03-22T11:59:01.269Z,1.10
2023-03-22T12:01:40.240Z,1.10
2023-03-22T12:04:17.871Z,1.10
2023-03-22T12:06:51.464Z,1.10
2023-03-22T12:09:32.933Z,1.20
2023-03-22T12:12:06.105Z,1.40
2023-03-22T12:14:45.429Z,1.40
2023-03-22T12:17:24.635Z,1.40
2023-03-22T12:20:09.434Z,1.07
2023-03-22T12:22:46.442Z,1.00
2023-03-22T12:25:19.615Z,1.70
2023-03-22T12:27:54.232Z,1.10
2023-03-22T12:30:27.593Z,1.20
2023-03-22T12:33:04.208Z,1.70
2023-03-22T12:35:38.110Z,1.20
2023-03-22T12:38:30.273Z,1.20
2023-03-22T12:41:04.432Z,1.40
2023-03-22T12:43:54.629Z,1.17
2023-03-22T12:46:27.890Z,1.30
2023-03-22T12:49:04.690Z,1.37
2023-03-22T12:51:34.271Z,1.20
2023-03-22T12:54:07.843Z,1.40
2023-03-22T12:56:44.534Z,1.30
2023-03-22T12:59:22.033Z,1.40
2023-03-22T13:02:00.027Z,1.20
2023-03-22T13:04:47.801Z,1.27
2023-03-22T13:07:34.888Z,1.33
2023-03-22T13:11:03.911Z,1.03
2023-03-22T13:13:51.494Z,1.10
2023-03-22T13:16:43.794Z,1.20
2023-03-22T13:19:33.122Z,1.40
2023-03-22T13:22:30.722Z,1.17
2023-03-22T13:25:32.024Z,1.30
2023-03-22T13:28:04.968Z,1.20
2023-03-22T13:30:48.182Z,1.10
2023-03-22T13:33:28.008Z,1.30
2023-03-22T13:36:00.773Z,1.30
2023-03-22T13:38:34.205Z,1.07
2023-03-22T13:41:07.945Z,1.20
2023-03-22T13:43:48.033Z,1.30
2023-03-22T13:46:51.350Z,1.00
2023-03-22T13:49:49.520Z,1.07
2023-03-22T13:52:40.234Z,1.53
2023-03-22T13:55:43.002Z,1.70
2023-03-22T13:58:38.973Z,1.13
2023-03-22T14:01:17.557Z,1.20
2023-03-22T14:03:52.398Z,1.00
2023-03-22T14:06:28.699Z,1.10
2023-03-22T14:09:06.719Z,1.40
2023-03-22T14:11:45.527Z,1.23
2023-03-22T14:14:23.979Z,1.50
2023-03-22T14:17:01.178Z,1.20
2023-03-22T14:19:36.383Z,1.27
